createdAt,value
2022-12-31T00:01:05.573Z,13.58
2022-12-31T00:03:32.069Z,13.60
2022-12-31T00:05:58.455Z,13.61
2022-12-31T00:08:24.994Z,13.64
2022-12-31T00:10:51.998Z,13.64
2022-12-31T00:13:18.350Z,13.64
2022-12-31T00:15:44.977Z,13.59
2022-12-31T00:18:11.542Z,13.54
2022-12-31T00:20:41.854Z,13.57
2022-12-31T00:23:08.953Z,13.55
2022-12-31T00:25:36.050Z,13.48
2022-12-31T00:28:03.495Z,13.56
2022-12-31T00:30:29.883Z,13.50
2022-12-31T00:32:56.318Z,13.50
2022-12-31T00:35:22.691Z,13.48
2022-12-31T00:37:51.041Z,13.47
2022-12-31T00:40:17.524Z,13.54
2022-12-31T00:42:43.937Z,13.55
2022-12-31T00:45:10.518Z,13.47
2022-12-31T00:47:36.949Z,13.47
2022-12-31T00:50:03.452Z,13.44
2022-12-31T00:52:29.900Z,13.41
2022-12-31T00:54:57.815Z,13.39
2022-12-31T00:57:24.251Z,13.42
2022-12-31T00:59:50.553Z,13.39
2022-12-31T01:02:17.089Z,13.39
2022-12-31T01:04:44.497Z,13.41
2022-12-31T01:07:11.007Z,13.43
2022-12-31T01:09:37.859Z,13.40
2022-12-31T01:12:04.426Z,13.38
2022-12-31T01:14:32.845Z,13.43
2022-12-31T01:16:59.459Z,13.41
2022-12-31T01:19:27.202Z,13.31
2022-12-31T01:21:53.852Z,13.33
2022-12-31T01:24:20.417Z,13.30
2022-12-31T01:26:46.891Z,13.31
2022-12-31T01:29:13.890Z,13.31
2022-12-31T01:31:40.512Z,13.36
2022-12-31T01:34:07.133Z,13.31
2022-12-31T01:36:34.786Z,13.32
2022-12-31T01:39:02.225Z,13.25
2022-12-31T01:41:29.978Z,13.25
2022-12-31T01:44:11.612Z,13.25
2022-12-31T01:46:42.625Z,13.21
2022-12-31T01:49:44.391Z,13.23
2022-12-31T01:52:13.342Z,13.22
2022-12-31T01:54:42.624Z,13.23
2022-12-31T01:57:09.720Z,13.29
2022-12-31T01:59:36.172Z,13.26
2022-12-31T02:02:02.799Z,13.21
2022-12-31T02:04:29.320Z,13.23
2022-12-31T02:07:00.232Z,13.22
2022-12-31T02:09:26.568Z,13.24
2022-12-31T02:11:53.069Z,13.27
2022-12-31T02:14:26.135Z,13.23
2022-12-31T02:16:57.536Z,13.21
2022-12-31T02:19:31.756Z,13.20
2022-12-31T02:22:04.001Z,13.23
2022-12-31T02:24:39.675Z,13.19
2022-12-31T02:27:24.463Z,13.21
2022-12-31T02:30:06.984Z,13.21
2022-12-31T02:32:52.241Z,13.18
2022-12-31T02:35:28.708Z,13.21
2022-12-31T02:37:58.859Z,13.21
2022-12-31T02:40:25.229Z,13.19
2022-12-31T02:42:55.260Z,13.21
2022-12-31T02:45:27.093Z,13.18
2022-12-31T02:48:13.630Z,13.19
2022-12-31T02:50:56.243Z,13.22
2022-12-31T02:53:31.783Z,13.18
2022-12-31T02:56:10.310Z,13.11
2022-12-31T02:59:13.038Z,13.10
2022-12-31T03:02:00.019Z,13.07
2022-12-31T03:04:32.479Z,13.06
2022-12-31T03:07:06.653Z,13.03
2022-12-31T03:09:33.313Z,13.05
2022-12-31T03:12:19.304Z,13.04
2022-12-31T03:14:45.677Z,13.01
2022-12-31T03:17:12.330Z,13.05
2022-12-31T03:19:57.763Z,12.98
2022-12-31T03:22:29.920Z,12.97
2022-12-31T03:25:24.001Z,12.96
2022-12-31T03:27:50.363Z,12.94
2022-12-31T03:30:17.755Z,12.91
2022-12-31T03:32:44.985Z,12.93
2022-12-31T03:35:12.755Z,12.89
2022-12-31T03:37:42.534Z,12.92
2022-12-31T03:40:10.280Z,12.88
2022-12-31T03:42:36.862Z,12.89
2022-12-31T03:45:03.556Z,12.86
2022-12-31T03:47:30.092Z,12.82
2022-12-31T03:49:56.539Z,12.85
2022-12-31T03:52:23.162Z,12.86
2022-12-31T03:54:49.520Z,12.82
2022-12-31T03:57:15.984Z,12.81
2022-12-31T03:59:42.304Z,12.78
2022-12-31T04:02:08.723Z,12.79
2022-12-31T04:04:35.256Z,12.80
2022-12-31T04:07:01.559Z,12.84
2022-12-31T04:09:27.957Z,12.79
2022-12-31T04:11:54.283Z,12.83
2022-12-31T04:14:20.620Z,12.77
2022-12-31T04:16:47.237Z,12.83
2022-12-31T04:19:13.603Z,12.79
2022-12-31T04:21:39.908Z,12.79
2022-12-31T04:24:06.949Z,12.79
2022-12-31T04:26:33.359Z,12.81
2022-12-31T04:28:59.797Z,12.82
2022-12-31T04:31:26.803Z,12.82
2022-12-31T04:33:53.236Z,12.82
2022-12-31T04:36:19.595Z,12.83
2022-12-31T04:38:46.009Z,12.84
2022-12-31T04:41:18.726Z,12.79
2022-12-31T04:43:46.368Z,12.77
2022-12-31T04:46:13.464Z,12.82
2022-12-31T04:48:40.011Z,12.75
2022-12-31T04:51:06.433Z,12.78
2022-12-31T04:53:33.042Z,12.68
2022-12-31T04:56:00.659Z,12.66
2022-12-31T04:58:27.098Z,12.69
2022-12-31T05:00:55.139Z,12.68
2022-12-31T05:03:23.028Z,12.66
2022-12-31T05:05:50.053Z,12.65
2022-12-31T05:08:17.180Z,12.67
2022-12-31T05:10:44.932Z,12.64
2022-12-31T05:13:11.414Z,12.65
2022-12-31T05:15:37.785Z,12.67
2022-12-31T05:18:06.525Z,12.62
2022-12-31T05:20:33.098Z,12.65
2022-12-31T05:22:59.514Z,12.55
2022-12-31T05:25:25.935Z,12.66
2022-12-31T05:27:52.295Z,12.63
2022-12-31T05:30:18.793Z,12.61
2022-12-31T05:32:48.509Z,12.62
2022-12-31T05:35:14.847Z,12.60
2022-12-31T05:37:41.224Z,12.63
2022-12-31T05:40:07.871Z,12.59
2022-12-31T05:42:34.234Z,12.60
2022-12-31T05:45:00.555Z,12.63
2022-12-31T05:47:27.303Z,12.66
2022-12-31T05:49:53.985Z,12.62
2022-12-31T05:52:21.442Z,12.63
2022-12-31T05:54:47.927Z,12.66
2022-12-31T05:57:14.390Z,12.65
2022-12-31T05:59:40.721Z,12.66
2022-12-31T06:02:07.303Z,12.66
2022-12-31T06:04:33.649Z,12.65
2022-12-31T06:06:59.945Z,12.64
2022-12-31T06:09:26.330Z,12.64
2022-12-31T06:11:52.736Z,12.59
2022-12-31T06:14:19.208Z,12.58
2022-12-31T06:16:45.558Z,12.60
2022-12-31T06:19:11.864Z,12.57
2022-12-31T06:21:38.160Z,12.59
2022-12-31T06:24:04.868Z,12.50
2022-12-31T06:26:31.167Z,12.57
2022-12-31T06:28:57.607Z,12.56
2022-12-31T06:31:24.131Z,12.60
2022-12-31T06:33:50.450Z,12.60
2022-12-31T06:36:17.069Z,12.63
2022-12-31T06:38:43.758Z,12.61
2022-12-31T06:41:12.361Z,12.70
2022-12-31T06:43:39.215Z,12.69
2022-12-31T06:46:06.542Z,12.69
2022-12-31T06:48:32.992Z,12.74
2022-12-31T06:51:25.757Z,12.73
2022-12-31T06:53:52.358Z,12.73
2022-12-31T06:56:20.540Z,12.77
2022-12-31T06:58:47.601Z,12.80
2022-12-31T07:01:20.227Z,12.73
2022-12-31T07:04:00.175Z,12.80
2022-12-31T07:06:33.361Z,12.84
2022-12-31T07:09:02.754Z,12.87
2022-12-31T07:11:34.761Z,12.82
2022-12-31T07:14:04.936Z,12.91
2022-12-31T07:16:37.700Z,12.97
2022-12-31T07:19:13.927Z,12.95
2022-12-31T07:21:41.237Z,13.05
2022-12-31T07:24:08.744Z,13.04
2022-12-31T07:26:56.712Z,13.06
2022-12-31T07:29:44.516Z,13.10
2022-12-31T07:32:13.836Z,13.28
2022-12-31T07:34:59.310Z,13.34
2022-12-31T07:37:25.616Z,13.32
2022-12-31T07:39:51.978Z,13.38
2022-12-31T07:42:23.498Z,13.37
2022-12-31T07:45:08.798Z,13.42
2022-12-31T07:47:35.287Z,13.54
2022-12-31T07:50:01.823Z,13.56
2022-12-31T07:52:28.365Z,13.56
2022-12-31T07:54:54.675Z,13.59
2022-12-31T07:57:24.637Z,13.60
2022-12-31T08:00:20.774Z,13.71
2022-12-31T08:03:10.149Z,13.70
2022-12-31T08:05:39.672Z,13.75
2022-12-31T08:08:15.454Z,13.76
2022-12-31T08:10:57.800Z,13.85
2022-12-31T08:13:24.393Z,13.86
2022-12-31T08:15:51.029Z,13.98
2022-12-31T08:18:17.787Z,13.95
2022-12-31T08:20:49.636Z,13.96
2022-12-31T08:23:32.617Z,13.98
2022-12-31T08:26:04.443Z,14.03
2022-12-31T08:28:49.437Z,14.08
2022-12-31T08:31:34.820Z,14.13
2022-12-31T08:34:13.293Z,14.13
2022-12-31T08:37:01.554Z,14.22
2022-12-31T08:39:34.579Z,14.22
2022-12-31T08:42:03.691Z,14.20
2022-12-31T08:44:32.846Z,14.28
2022-12-31T08:47:02.319Z,14.32
2022-12-31T08:49:33.006Z,14.28
2022-12-31T08:52:00.172Z,14.29
2022-12-31T08:54:26.778Z,14.36
2022-12-31T08:56:57.204Z,14.38
2022-12-31T08:59:23.591Z,14.38
2022-12-31T09:02:08.633Z,14.40
2022-12-31T09:04:52.218Z,14.42
2022-12-31T09:07:22.161Z,14.38
2022-12-31T09:10:03.090Z,14.31
2022-12-31T09:12:32.511Z,14.45
2022-12-31T09:15:10.552Z,14.40
2022-12-31T09:17:45.882Z,14.35
2022-12-31T09:20:15.141Z,14.45
2022-12-31T09:22:41.605Z,14.39
2022-12-31T09:25:12.278Z,14.42
2022-12-31T09:27:44.012Z,14.43
2022-12-31T09:30:14.439Z,14.34
2022-12-31T09:32:44.215Z,14.34
2022-12-31T09:35:43.080Z,14.36
2022-12-31T09:38:18.620Z,14.34
2022-12-31T09:40:47.766Z,14.28
2022-12-31T09:43:23.401Z,14.35
2022-12-31T09:46:08.164Z,14.39
2022-12-31T09:48:53.796Z,14.46
2022-12-31T09:51:25.331Z,14.46
2022-12-31T09:54:10.832Z,14.49
2022-12-31T09:56:42.486Z,14.57
2022-12-31T09:59:14.795Z,14.69
2022-12-31T10:01:49.724Z,14.65
2022-12-31T10:04:19.182Z,14.79
2022-12-31T10:06:57.709Z,14.77
2022-12-31T10:09:35.983Z,14.76
2022-12-31T10:12:05.154Z,14.84
2022-12-31T10:14:47.713Z,14.84
2022-12-31T10:17:29.464Z,15.00
2022-12-31T10:19:55.826Z,14.98
2022-12-31T10:22:25.231Z,15.01
2022-12-31T10:25:18.129Z,14.95
2022-12-31T10:27:47.674Z,14.95
2022-12-31T10:30:19.114Z,14.88
2022-12-31T10:33:04.593Z,14.85
2022-12-31T10:35:39.799Z,14.86
2022-12-31T10:38:26.680Z,14.85
2022-12-31T10:41:11.648Z,14.77
2022-12-31T10:43:53.431Z,14.91
2022-12-31T10:46:29.105Z,14.89
2022-12-31T10:48:58.677Z,14.92
2022-12-31T10:51:43.811Z,14.97
2022-12-31T10:54:13.278Z,14.96
2022-12-31T10:56:42.432Z,15.05
2022-12-31T10:59:47.871Z,15.08
2022-12-31T11:02:17.011Z,15.20
2022-12-31T11:04:59.830Z,15.18
2022-12-31T11:07:34.791Z,15.15
2022-12-31T11:10:28.399Z,15.21
2022-12-31T11:13:13.565Z,15.20
2022-12-31T11:15:50.601Z,15.26
2022-12-31T11:18:35.668Z,15.31
2022-12-31T11:21:27.763Z,15.28
2022-12-31T11:24:14.490Z,15.32
2022-12-31T11:26:59.697Z,15.41
2022-12-31T11:29:38.144Z,15.42
2022-12-31T11:32:12.187Z,15.53
2022-12-31T11:34:38.605Z,15.51
2022-12-31T11:37:04.898Z,15.54
2022-12-31T11:39:36.448Z,15.59
2022-12-31T11:42:11.686Z,15.54
2022-12-31T11:44:51.641Z,15.54
2022-12-31T11:47:44.763Z,15.55
2022-12-31T11:50:29.139Z,15.54
2022-12-31T11:53:14.121Z,15.51
2022-12-31T11:55:56.699Z,15.53
2022-12-31T11:58:28.447Z,15.54
2022-12-31T12:01:08.618Z,15.56
2022-12-31T12:03:38.642Z,15.57
2022-12-31T12:06:05.168Z,15.54
2022-12-31T12:08:32.544Z,15.50
2022-12-31T12:11:22.358Z,15.50
2022-12-31T12:13:49.241Z,15.53
2022-12-31T12:16:15.879Z,15.53
2022-12-31T12:18:47.276Z,15.50
2022-12-31T12:21:16.144Z,15.51
2022-12-31T12:23:54.364Z,15.56
2022-12-31T12:26:37.789Z,15.59
2022-12-31T12:29:17.763Z,15.56
2022-12-31T12:31:56.355Z,15.54
2022-12-31T12:34:31.896Z,15.51
2022-12-31T12:36:58.276Z,15.60
2022-12-31T12:39:26.437Z,15.58
2022-12-31T12:42:00.260Z,15.64
2022-12-31T12:44:26.942Z,15.65
2022-12-31T12:46:54.060Z,15.60
2022-12-31T12:49:27.931Z,15.59
2022-12-31T12:52:04.563Z,15.62
2022-12-31T12:54:39.885Z,15.65
2022-12-31T12:57:06.237Z,15.64
2022-12-31T12:59:47.947Z,15.65
2022-12-31T13:02:52.963Z,15.66
2022-12-31T13:05:24.334Z,15.63
2022-12-31T13:08:00.211Z,15.70
2022-12-31T13:10:37.348Z,15.63
2022-12-31T13:13:25.434Z,15.61
2022-12-31T13:15:56.829Z,15.53
2022-12-31T13:18:23.168Z,15.69
2022-12-31T13:20:49.525Z,15.69
2022-12-31T13:23:28.070Z,15.71
2022-12-31T13:25:57.473Z,15.71
2022-12-31T13:28:24.651Z,15.77
2022-12-31T13:30:53.529Z,15.77
2022-12-31T13:33:25.616Z,15.82
2022-12-31T13:35:57.016Z,15.80
2022-12-31T13:38:28.665Z,15.81
2022-12-31T13:40:57.812Z,15.84
2022-12-31T13:43:24.102Z,15.76
2022-12-31T13:45:56.936Z,15.90
2022-12-31T13:48:28.697Z,15.91
2022-12-31T13:51:00.421Z,15.85
2022-12-31T13:53:34.985Z,15.82
2022-12-31T13:56:05.849Z,15.81
2022-12-31T13:58:35.096Z,15.85
2022-12-31T14:01:06.848Z,15.81
2022-12-31T14:03:36.288Z,15.78
2022-12-31T14:06:11.317Z,15.74
2022-12-31T14:08:37.644Z,15.71
2022-12-31T14:11:20.768Z,15.73
2022-12-31T14:13:47.111Z,15.68
2022-12-31T14:16:16.539Z,15.62
2022-12-31T14:18:58.909Z,15.66
2022-12-31T14:21:37.489Z,15.66
2022-12-31T14:24:13.945Z,15.60
2022-12-31T14:26:45.861Z,15.58
2022-12-31T14:29:12.320Z,15.57
2022-12-31T14:31:55.077Z,15.58
2022-12-31T14:34:21.467Z,15.62
2022-12-31T14:36:50.612Z,15.60
2022-12-31T14:39:19.961Z,15.56
2022-12-31T14:41:55.393Z,15.63
2022-12-31T14:44:27.702Z,15.60
2022-12-31T14:47:13.440Z,15.56
2022-12-31T14:49:44.614Z,15.55
2022-12-31T14:52:23.887Z,15.48
2022-12-31T14:54:59.345Z,15.44
2022-12-31T14:57:26.909Z,15.51
2022-12-31T15:00:00.163Z,15.54
2022-12-31T15:02:27.949Z,15.45
2022-12-31T15:05:23.963Z,15.44
2022-12-31T15:08:10.095Z,15.34
2022-12-31T15:10:55.337Z,15.42
2022-12-31T15:13:27.809Z,15.28
2022-12-31T15:15:54.145Z,15.25
2022-12-31T15:18:31.887Z,15.30
2022-12-31T15:21:20.734Z,15.30
2022-12-31T15:23:47.324Z,15.27
2022-12-31T15:26:28.407Z,15.30
2022-12-31T15:29:05.111Z,15.28
2022-12-31T15:31:33.314Z,15.25
2022-12-31T15:34:05.477Z,15.29
2022-12-31T15:36:38.266Z,15.23
2022-12-31T15:39:25.729Z,15.26
2022-12-31T15:42:36.193Z,15.22
2022-12-31T15:44:51.287Z,15.23
2022-12-31T15:47:23.784Z,15.27
2022-12-31T15:49:50.859Z,15.29
2022-12-31T15:52:23.517Z,15.25
2022-12-31T15:54:51.788Z,15.26
2022-12-31T15:57:20.686Z,15.33
2022-12-31T15:59:47.448Z,15.26
2022-12-31T16:02:32.447Z,15.24
2022-12-31T16:04:58.900Z,15.27
2022-12-31T16:07:27.292Z,15.27
2022-12-31T16:09:54.968Z,15.25
2022-12-31T16:12:26.531Z,15.33
2022-12-31T16:14:58.939Z,15.27
2022-12-31T16:17:28.163Z,15.29
2022-12-31T16:19:54.996Z,15.25
2022-12-31T16:22:27.331Z,15.31
2022-12-31T16:27:44.445Z,15.32
2022-12-31T16:30:21.808Z,15.40
2022-12-31T16:32:49.615Z,15.33
2022-12-31T16:35:24.598Z,15.39
2022-12-31T16:38:20.555Z,15.40
2022-12-31T16:41:07.133Z,15.42
2022-12-31T16:43:38.384Z,15.44
2022-12-31T16:46:26.196Z,15.53
2022-12-31T16:48:54.187Z,15.47
2022-12-31T16:51:22.304Z,15.47
2022-12-31T16:53:49.242Z,15.49
2022-12-31T16:56:30.502Z,15.50
2022-12-31T16:59:02.446Z,15.66
2022-12-31T17:01:31.715Z,15.67
2022-12-31T17:03:59.730Z,15.66
2022-12-31T17:06:28.138Z,15.63
2022-12-31T17:09:00.770Z,15.65
2022-12-31T17:11:28.859Z,15.64
2022-12-31T17:13:56.842Z,15.70
2022-12-31T17:16:25.840Z,15.71
2022-12-31T17:18:52.829Z,15.68
2022-12-31T17:21:20.561Z,15.74
2022-12-31T17:23:50.557Z,15.77
2022-12-31T17:26:22.905Z,15.83
2022-12-31T17:28:51.294Z,15.77
2022-12-31T17:31:37.820Z,15.85
2022-12-31T17:34:13.464Z,15.80
2022-12-31T17:36:58.476Z,15.83
2022-12-31T17:39:26.309Z,15.85
2022-12-31T17:41:55.827Z,15.82
2022-12-31T17:44:31.433Z,15.84
2022-12-31T17:46:57.897Z,15.89
2022-12-31T17:49:28.003Z,15.81
2022-12-31T17:51:54.394Z,15.84
2022-12-31T17:54:20.719Z,15.92
2022-12-31T17:56:47.352Z,15.91
2022-12-31T17:59:24.029Z,15.96
2022-12-31T18:01:50.814Z,15.87
2022-12-31T18:04:19.043Z,15.94
2022-12-31T18:06:45.430Z,15.96
2022-12-31T18:09:11.974Z,15.92
2022-12-31T18:11:39.909Z,16.00
2022-12-31T18:14:07.008Z,15.92
2022-12-31T18:16:33.336Z,15.91
2022-12-31T18:19:00.603Z,15.93
2022-12-31T18:21:32.611Z,15.98
2022-12-31T18:26:25.312Z,16.01
2022-12-31T18:28:52.223Z,15.97
2022-12-31T18:31:23.159Z,16.00
2022-12-31T18:33:51.095Z,15.98
2022-12-31T18:36:18.396Z,15.96
2022-12-31T18:38:45.299Z,15.93
2022-12-31T18:41:16.840Z,15.95
2022-12-31T18:43:43.185Z,15.93
2022-12-31T18:46:13.972Z,16.01
2022-12-31T18:48:44.097Z,15.94
2022-12-31T18:51:14.866Z,16.10
2022-12-31T18:53:41.482Z,16.02
2022-12-31T18:56:12.699Z,16.06
2022-12-31T18:58:39.230Z,16.07
2022-12-31T19:01:05.719Z,16.10
2022-12-31T19:03:32.149Z,16.16
2022-12-31T19:05:58.591Z,16.19
2022-12-31T19:08:24.946Z,16.07
2022-12-31T19:10:51.910Z,16.12
2022-12-31T19:13:19.075Z,16.16
2022-12-31T19:15:55.547Z,16.20
2022-12-31T19:18:21.882Z,16.32
2022-12-31T19:20:48.266Z,16.23
2022-12-31T19:23:16.431Z,16.22
2022-12-31T19:25:42.799Z,16.29
2022-12-31T19:28:14.702Z,16.22
2022-12-31T19:30:41.391Z,16.20
2022-12-31T19:33:07.716Z,16.24
2022-12-31T19:35:34.052Z,16.28
2022-12-31T19:38:00.514Z,16.27
2022-12-31T19:40:28.128Z,16.27
2022-12-31T19:42:55.876Z,16.23
2022-12-31T19:45:23.756Z,16.30
2022-12-31T19:47:50.603Z,16.32
2022-12-31T19:50:21.997Z,16.37
2022-12-31T19:52:51.229Z,16.28
2022-12-31T19:55:19.274Z,16.34
2022-12-31T19:57:46.496Z,16.31
2022-12-31T20:00:14.755Z,16.35
2022-12-31T20:02:41.445Z,16.36
2022-12-31T20:05:08.271Z,16.34
2022-12-31T20:07:34.809Z,16.41
2022-12-31T20:10:01.212Z,16.34
2022-12-31T20:12:28.208Z,16.32
2022-12-31T20:14:54.819Z,16.29
2022-12-31T20:17:21.504Z,16.34
2022-12-31T20:19:47.852Z,16.26
2022-12-31T20:22:14.247Z,16.32
2022-12-31T20:24:40.612Z,16.24
2022-12-31T20:27:13.568Z,16.25
2022-12-31T20:29:42.864Z,16.31
2022-12-31T20:32:09.357Z,16.32
2022-12-31T20:34:35.702Z,16.32
2022-12-31T20:37:02.097Z,16.26
2022-12-31T20:39:28.451Z,16.27
2022-12-31T20:41:54.819Z,16.28
2022-12-31T20:44:21.246Z,16.38
2022-12-31T20:46:47.612Z,16.30
2022-12-31T20:49:13.994Z,16.38
2022-12-31T20:51:40.332Z,16.38
2022-12-31T20:54:08.923Z,16.24
2022-12-31T20:56:36.485Z,16.31
2022-12-31T20:59:03.802Z,16.33
2022-12-31T21:01:55.189Z,16.36
2022-12-31T21:04:19.896Z,16.47
2022-12-31T21:06:47.834Z,16.43
2022-12-31T21:09:14.427Z,16.39
2022-12-31T21:11:59.591Z,16.38
2022-12-31T21:14:26.082Z,16.35
2022-12-31T21:16:52.449Z,16.35
2022-12-31T21:19:18.940Z,16.43
2022-12-31T21:21:45.346Z,16.41
2022-12-31T21:24:11.739Z,16.36
2022-12-31T21:26:38.225Z,16.33
2022-12-31T21:29:04.678Z,16.27
2022-12-31T21:31:31.169Z,16.27
2022-12-31T21:33:57.551Z,16.19
2022-12-31T21:36:23.945Z,16.18
2022-12-31T21:38:50.300Z,16.15
2022-12-31T21:41:35.481Z,16.12
2022-12-31T21:44:02.201Z,16.09
2022-12-31T21:46:28.926Z,16.07
2022-12-31T21:48:59.567Z,16.08
2022-12-31T21:51:26.554Z,16.02
2022-12-31T21:53:52.877Z,16.05
2022-12-31T21:56:21.079Z,15.98
2022-12-31T21:59:11.752Z,16.05
2022-12-31T22:01:56.895Z,16.03
2022-12-31T22:05:00.352Z,15.99
2022-12-31T22:07:09.753Z,15.96
2022-12-31T22:09:36.074Z,16.00
2022-12-31T22:12:02.485Z,15.94
2022-12-31T22:14:28.883Z,15.98
2022-12-31T22:16:55.588Z,16.03
2022-12-31T22:19:21.912Z,15.99
2022-12-31T22:21:48.223Z,15.98
2022-12-31T22:24:14.601Z,15.92
2022-12-31T22:26:46.429Z,15.94
2022-12-31T22:29:13.154Z,16.03
2022-12-31T22:31:39.574Z,15.85
2022-12-31T22:34:06.021Z,15.97
2022-12-31T22:36:32.441Z,15.92
2022-12-31T22:38:58.890Z,15.94
2022-12-31T22:41:25.894Z,15.94
2022-12-31T22:43:58.677Z,15.89
2022-12-31T22:46:29.312Z,15.94
2022-12-31T22:48:57.599Z,16.03
2022-12-31T22:51:23.981Z,15.99
2022-12-31T22:53:50.453Z,15.97
2022-12-31T22:56:18.070Z,15.94
2022-12-31T22:58:44.784Z,15.93
2022-12-31T23:01:19.086Z,15.99
2022-12-31T23:03:46.654Z,15.96
2022-12-31T23:06:13.149Z,16.03
2022-12-31T23:08:39.793Z,16.07
2022-12-31T23:11:09.259Z,16.01
2022-12-31T23:13:56.289Z,16.08
2022-12-31T23:16:42.533Z,16.08
2022-12-31T23:19:27.934Z,16.04
2022-12-31T23:22:12.984Z,16.03
2022-12-31T23:24:39.396Z,16.03
2022-12-31T23:27:06.155Z,16.03
2022-12-31T23:29:33.022Z,16.08
2022-12-31T23:31:59.480Z,16.12
2022-12-31T23:34:25.847Z,16.14
2022-12-31T23:36:52.184Z,16.05
2022-12-31T23:39:18.658Z,15.98
2022-12-31T23:41:45.649Z,15.93
2022-12-31T23:44:12.265Z,15.86
2022-12-31T23:46:39.115Z,15.70
2022-12-31T23:49:05.857Z,15.67
2022-12-31T23:51:32.820Z,15.54
2022-12-31T23:53:59.182Z,15.47
2022-12-31T23:56:25.505Z,15.46
2022-12-31T23:58:55.490Z,15.35
